createdAt,value
2023-01-04T00:02:15.524Z,22.30
2023-01-04T00:04:46.343Z,21.05
2023-01-04T00:07:17.008Z,28.57
2023-01-04T00:09:47.741Z,19.62
2023-01-04T00:12:22.112Z,18.30
2023-01-04T00:14:52.838Z,19.67
2023-01-04T00:17:23.625Z,16.27
2023-01-04T00:19:54.328Z,18.35
2023-01-04T00:22:25.265Z,19.90
2023-01-04T00:24:56.062Z,24.07
2023-01-04T00:27:26.927Z,20.23
2023-01-04T00:29:57.777Z,19.85
2023-01-04T00:32:28.756Z,24.82
2023-01-04T00:34:59.478Z,18.48
2023-01-04T00:37:30.170Z,21.45
2023-01-04T00:40:00.903Z,23.57
2023-01-04T00:42:31.692Z,19.05
2023-01-04T00:45:03.402Z,24.95
2023-01-04T00:47:35.753Z,18.17
2023-01-04T00:50:08.227Z,17.73
2023-01-04T00:52:40.262Z,17.00
2023-01-04T00:55:12.933Z,17.48
2023-01-04T00:57:45.435Z,16.67
2023-01-04T01:00:18.633Z,18.10
2023-01-04T01:02:51.709Z,16.12
2023-01-04T01:05:29.637Z,13.28
2023-01-04T01:08:03.547Z,20.05
2023-01-04T01:10:37.256Z,11.73
2023-01-04T01:13:09.105Z,11.43
2023-01-04T01:15:40.999Z,13.78
2023-01-04T01:18:11.827Z,15.58
2023-01-04T01:20:47.070Z,11.75
2023-01-04T01:23:18.803Z,14.90
2023-01-04T01:25:49.529Z,14.20
2023-01-04T01:28:20.291Z,11.97
2023-01-04T01:30:51.077Z,11.43
2023-01-04T01:33:22.055Z,12.58
2023-01-04T01:35:52.746Z,14.50
2023-01-04T01:38:23.470Z,16.35
2023-01-04T01:40:54.151Z,18.42
2023-01-04T01:43:28.013Z,15.50
2023-01-04T01:46:06.593Z,12.00
2023-01-04T01:48:33.163Z,12.33
2023-01-04T01:51:05.847Z,14.65
2023-01-04T01:53:39.199Z,9.98
2023-01-04T01:56:11.725Z,12.23
2023-01-04T01:58:44.984Z,16.52
2023-01-04T02:01:16.259Z,14.45
2023-01-04T02:03:47.423Z,8.70
2023-01-04T02:06:23.440Z,11.03
2023-01-04T02:08:54.862Z,12.23
2023-01-04T02:11:25.703Z,13.65
2023-01-04T02:14:15.383Z,12.25
2023-01-04T02:17:00.217Z,10.53
2023-01-04T02:20:06.742Z,16.75
2023-01-04T02:22:59.740Z,12.58
2023-01-04T02:26:06.054Z,13.85
2023-01-04T02:31:26.442Z,12.13
2023-01-04T02:34:02.739Z,11.18
2023-01-04T02:37:01.765Z,11.63
2023-01-04T02:39:57.589Z,12.40
2023-01-04T02:43:00.646Z,14.68
2023-01-04T02:45:33.854Z,12.73
2023-01-04T02:48:29.343Z,12.18
2023-01-04T02:51:02.767Z,9.35
2023-01-04T02:53:36.020Z,11.33
2023-01-04T02:56:39.596Z,11.43
2023-01-04T02:59:18.924Z,10.35
2023-01-04T03:02:26.594Z,11.55
2023-01-04T03:05:19.981Z,15.20
2023-01-04T03:07:58.767Z,10.48
2023-01-04T03:10:37.578Z,11.10
2023-01-04T03:13:13.903Z,15.35
2023-01-04T03:15:50.522Z,12.85
2023-01-04T03:18:26.813Z,8.50
2023-01-04T03:21:00.698Z,10.18
2023-01-04T03:23:51.353Z,9.58
2023-01-04T03:26:42.493Z,8.23
2023-01-04T03:29:38.792Z,8.50
2023-01-04T03:32:30.161Z,9.63
2023-01-04T03:35:19.372Z,11.00
2023-01-04T03:38:13.429Z,10.00
2023-01-04T03:41:04.821Z,10.85
2023-01-04T03:44:11.591Z,8.50
2023-01-04T03:47:09.133Z,9.45
2023-01-04T03:49:51.568Z,7.83
2023-01-04T03:52:23.264Z,9.68
2023-01-04T03:54:55.503Z,9.50
2023-01-04T03:57:40.392Z,7.62
2023-01-04T04:00:19.916Z,6.83
2023-01-04T04:02:54.925Z,11.53
2023-01-04T04:08:50.520Z,13.08
2023-01-04T04:11:34.191Z,6.65
2023-01-04T04:14:04.954Z,11.28
2023-01-04T04:16:36.443Z,6.58
2023-01-04T04:19:09.078Z,7.75
2023-01-04T04:21:39.968Z,6.40
2023-01-04T04:24:12.034Z,6.70
2023-01-04T04:26:43.747Z,5.90
2023-01-04T04:29:14.630Z,5.80
2023-01-04T04:31:45.445Z,4.83
2023-01-04T04:34:16.521Z,5.10
2023-01-04T04:36:47.465Z,4.62
2023-01-04T04:39:18.479Z,6.95
2023-01-04T04:41:49.407Z,8.88
2023-01-04T04:44:22.004Z,6.83
2023-01-04T04:46:52.933Z,7.42
2023-01-04T04:49:23.901Z,8.83
2023-01-04T04:51:56.036Z,9.98
2023-01-04T04:54:26.805Z,5.65
2023-01-04T04:56:57.738Z,7.35
2023-01-04T04:59:28.894Z,5.45
2023-01-04T05:02:01.052Z,7.00
2023-01-04T05:04:31.991Z,6.45
2023-01-04T05:07:05.074Z,7.60
2023-01-04T05:09:35.591Z,4.72
2023-01-04T05:12:23.886Z,6.55
2023-01-04T05:14:54.586Z,6.05
2023-01-04T05:17:25.998Z,5.58
2023-01-04T05:19:56.990Z,6.30
2023-01-04T05:22:33.416Z,5.72
2023-01-04T05:25:04.285Z,6.62
2023-01-04T05:27:38.281Z,5.10
2023-01-04T05:30:27.522Z,3.83
2023-01-04T05:32:59.289Z,5.58
2023-01-04T05:35:30.581Z,6.42
2023-01-04T05:38:03.925Z,4.78
2023-01-04T05:40:34.748Z,3.15
2023-01-04T05:43:05.517Z,4.60
2023-01-04T05:45:36.760Z,6.55
2023-01-04T05:48:07.884Z,6.78
2023-01-04T05:50:38.891Z,4.85
2023-01-04T05:53:10.122Z,5.22
2023-01-04T05:55:41.118Z,5.03
2023-01-04T05:58:12.365Z,4.92
2023-01-04T06:00:43.163Z,5.50
2023-01-04T06:03:16.296Z,7.00
2023-01-04T06:05:48.297Z,7.47
2023-01-04T06:08:19.180Z,5.72
2023-01-04T06:10:58.000Z,5.08
2023-01-04T06:13:28.920Z,5.80
2023-01-04T06:16:02.968Z,6.33
2023-01-04T06:18:35.448Z,5.58
2023-01-04T06:21:09.409Z,4.17
2023-01-04T06:23:41.135Z,3.52
2023-01-04T06:26:32.477Z,4.35
2023-01-04T06:29:03.180Z,3.22
2023-01-04T06:31:34.749Z,4.67
2023-01-04T06:34:05.625Z,5.78
2023-01-04T06:36:37.019Z,4.03
2023-01-04T06:39:09.243Z,3.42
2023-01-04T06:41:40.115Z,2.58
2023-01-04T06:44:11.020Z,3.52
2023-01-04T06:46:43.611Z,3.72
2023-01-04T06:49:15.429Z,2.98
2023-01-04T06:51:46.104Z,4.17
2023-01-04T06:54:16.916Z,3.37
2023-01-04T06:56:47.687Z,3.45
2023-01-04T06:59:18.690Z,5.08
2023-01-04T07:01:49.499Z,4.37
2023-01-04T07:04:20.436Z,2.85
2023-01-04T07:06:52.734Z,3.45
2023-01-04T07:09:24.414Z,4.60
2023-01-04T07:11:55.543Z,2.83
2023-01-04T07:14:26.301Z,3.35
2023-01-04T07:16:57.073Z,4.95
2023-01-04T07:19:28.617Z,3.67
2023-01-04T07:21:59.935Z,3.72
2023-01-04T07:24:31.062Z,3.52
2023-01-04T07:27:06.086Z,4.22
2023-01-04T07:29:37.068Z,2.25
2023-01-04T07:32:14.003Z,4.65
2023-01-04T07:34:45.593Z,3.42
2023-01-04T07:37:17.700Z,2.62
2023-01-04T07:39:49.680Z,2.90
2023-01-04T07:42:21.450Z,2.37
2023-01-04T07:44:52.283Z,3.65
2023-01-04T07:47:23.230Z,5.47
2023-01-04T07:49:54.486Z,3.72
2023-01-04T07:52:25.472Z,3.67
2023-01-04T07:54:58.107Z,4.05
2023-01-04T07:57:29.645Z,2.80
2023-01-04T08:00:01.775Z,2.75
2023-01-04T08:02:32.988Z,4.67
2023-01-04T08:05:04.999Z,4.25
2023-01-04T08:07:38.628Z,2.92
2023-01-04T08:10:10.598Z,6.00
2023-01-04T08:12:42.959Z,3.10
2023-01-04T08:15:15.461Z,2.20
2023-01-04T08:17:46.259Z,5.92
2023-01-04T08:20:17.235Z,6.87
2023-01-04T08:22:48.206Z,6.40
2023-01-04T08:25:19.526Z,5.10
2023-01-04T08:27:53.125Z,2.98
2023-01-04T08:30:26.011Z,4.70
2023-01-04T08:32:56.229Z,3.17
2023-01-04T08:35:27.505Z,3.85
2023-01-04T08:38:28.432Z,5.25
2023-01-04T08:41:00.084Z,3.15
2023-01-04T08:43:07.964Z,5.78
2023-01-04T08:45:39.135Z,3.30
2023-01-04T08:48:09.964Z,2.30
2023-01-04T08:50:40.790Z,4.80
2023-01-04T08:53:12.253Z,4.80
2023-01-04T08:55:43.010Z,2.52
2023-01-04T08:58:13.920Z,3.45
2023-01-04T09:00:44.796Z,6.40
2023-01-04T09:03:16.197Z,4.50
2023-01-04T09:05:48.679Z,3.20
2023-01-04T09:08:19.349Z,2.95
2023-01-04T09:10:50.665Z,2.72
2023-01-04T09:13:21.384Z,2.10
2023-01-04T09:15:53.561Z,3.22
2023-01-04T09:18:32.682Z,3.35
2023-01-04T09:20:56.615Z,5.28
2023-01-04T09:23:27.769Z,2.25
2023-01-04T09:26:02.124Z,2.17
2023-01-04T09:28:31.453Z,4.08
2023-01-04T09:31:03.444Z,3.67
2023-01-04T09:34:04.068Z,4.55
2023-01-04T09:36:10.525Z,6.78
2023-01-04T09:38:41.533Z,5.17
2023-01-04T09:41:23.504Z,7.35
2023-01-04T09:43:59.027Z,9.63
2023-01-04T09:46:32.884Z,8.33
2023-01-04T09:49:25.446Z,9.48
2023-01-04T09:52:13.391Z,7.25
2023-01-04T09:54:49.425Z,10.58
2023-01-04T09:57:35.190Z,5.45
2023-01-04T10:00:14.120Z,4.90
2023-01-04T10:02:53.380Z,7.67
2023-01-04T10:05:32.111Z,7.10
2023-01-04T10:08:04.519Z,4.50
2023-01-04T10:10:43.578Z,7.72
2023-01-04T10:13:49.900Z,7.25
2023-01-04T10:16:44.605Z,5.33
2023-01-04T10:20:59.551Z,5.58
2023-01-04T10:22:00.253Z,5.10
2023-01-04T10:24:48.693Z,5.97
2023-01-04T10:27:28.168Z,4.67
2023-01-04T10:30:07.281Z,8.38
2023-01-04T10:32:48.451Z,7.17
2023-01-04T10:35:24.445Z,5.80
2023-01-04T10:38:03.554Z,8.95
2023-01-04T10:40:36.861Z,5.92
2023-01-04T10:43:28.267Z,7.22
2023-01-04T10:46:13.463Z,7.53
2023-01-04T10:48:46.889Z,26.95
2023-01-04T10:51:21.950Z,15.23
2023-01-04T10:53:57.516Z,7.47
2023-01-04T10:56:36.774Z,8.17
2023-01-04T10:59:24.847Z,9.33
2023-01-04T11:01:58.288Z,8.48
2023-01-04T11:04:31.911Z,9.33
2023-01-04T11:07:28.016Z,10.80
2023-01-04T11:10:08.153Z,8.38
2023-01-04T11:12:42.716Z,11.85
2023-01-04T11:15:14.131Z,11.25
2023-01-04T11:17:47.349Z,12.23
2023-01-04T11:20:20.763Z,12.70
2023-01-04T11:23:00.709Z,8.30
2023-01-04T11:25:35.440Z,13.38
2023-01-04T11:28:11.034Z,11.95
2023-01-04T11:30:56.866Z,9.80
2023-01-04T11:33:29.115Z,9.15
2023-01-04T11:36:04.646Z,9.65
2023-01-04T11:38:52.888Z,7.35
2023-01-04T11:41:09.482Z,7.92
2023-01-04T11:43:44.115Z,11.20
2023-01-04T11:46:23.148Z,10.45
2023-01-04T11:48:55.255Z,15.72
2023-01-04T11:51:34.981Z,10.45
2023-01-04T11:54:08.520Z,14.43
2023-01-04T11:56:42.900Z,18.25
2023-01-04T11:59:25.206Z,20.62
2023-01-04T12:04:35.709Z,23.83
2023-01-04T12:07:11.642Z,21.13
2023-01-04T12:09:46.272Z,32.40
2023-01-04T12:12:18.786Z,33.13
2023-01-04T12:14:54.484Z,34.33
2023-01-04T12:17:43.111Z,37.08
2023-01-04T12:20:14.649Z,30.00
2023-01-04T12:22:42.353Z,34.30
2023-01-04T12:25:28.076Z,31.27
2023-01-04T12:27:58.973Z,34.83
2023-01-04T12:30:45.803Z,36.45
2023-01-04T12:33:37.015Z,36.15
2023-01-04T12:36:10.994Z,28.90
2023-01-04T12:39:02.363Z,30.40
2023-01-04T12:41:41.763Z,25.17
2023-01-04T12:44:40.218Z,23.52
2023-01-04T12:47:39.705Z,23.90
2023-01-04T12:50:13.129Z,22.93
2023-01-04T12:53:11.182Z,20.85
2023-01-04T12:55:32.157Z,21.70
2023-01-04T12:58:07.408Z,29.30
2023-01-04T13:00:55.997Z,23.98
2023-01-04T13:03:29.377Z,24.05
2023-01-04T13:06:05.620Z,22.87
2023-01-04T13:08:45.533Z,23.65
2023-01-04T13:11:33.863Z,24.23
2023-01-04T13:14:09.989Z,23.10
2023-01-04T13:16:55.183Z,21.80
2023-01-04T13:19:27.672Z,25.95
2023-01-04T13:21:59.529Z,23.77
2023-01-04T13:24:33.108Z,26.35
2023-01-04T13:27:08.151Z,20.70
2023-01-04T13:29:41.209Z,21.97
2023-01-04T13:32:14.674Z,21.42
2023-01-04T13:35:06.823Z,22.98
2023-01-04T13:37:43.235Z,22.10
2023-01-04T13:40:35.835Z,20.00
2023-01-04T13:43:25.448Z,24.77
2023-01-04T13:46:14.844Z,20.88
2023-01-04T13:51:39.810Z,19.45
2023-01-04T13:57:23.269Z,16.50
2023-01-04T13:59:54.526Z,14.78
2023-01-04T14:02:25.694Z,15.38
2023-01-04T14:05:05.432Z,12.75
2023-01-04T14:10:41.823Z,15.13
2023-01-04T14:13:15.587Z,10.40
2023-01-04T14:15:49.080Z,12.90
2023-01-04T14:18:36.856Z,10.50
2023-01-04T14:21:23.667Z,11.85
2023-01-04T14:23:55.762Z,11.63
2023-01-04T14:26:37.166Z,7.80
2023-01-04T14:29:32.523Z,9.00
2023-01-04T14:32:09.185Z,9.30
2023-01-04T14:34:49.625Z,8.03
2023-01-04T14:37:20.435Z,7.72
2023-01-04T14:39:51.516Z,9.23
2023-01-04T14:42:30.297Z,7.08
2023-01-04T14:45:01.216Z,5.45
2023-01-04T14:47:32.163Z,7.95
2023-01-04T14:50:02.974Z,6.12
2023-01-04T14:52:35.384Z,7.65
2023-01-04T14:55:06.878Z,8.35
2023-01-04T14:57:39.003Z,6.90
2023-01-04T15:00:16.884Z,8.58
2023-01-04T15:02:44.049Z,4.90
2023-01-04T15:05:15.262Z,6.05
2023-01-04T15:07:46.047Z,9.05
2023-01-04T15:10:25.117Z,6.53
2023-01-04T15:12:56.094Z,6.35
2023-01-04T15:15:26.790Z,8.08
2023-01-04T15:17:57.497Z,5.42
2023-01-04T15:20:28.620Z,5.25
2023-01-04T15:22:59.466Z,5.78
2023-01-04T15:25:30.856Z,5.10
2023-01-04T15:28:01.761Z,4.35
2023-01-04T15:30:33.874Z,6.83
2023-01-04T15:33:04.591Z,6.25
2023-01-04T15:35:42.528Z,6.33
2023-01-04T15:38:18.270Z,5.72
2023-01-04T15:40:46.986Z,3.47
2023-01-04T15:43:17.707Z,4.28
2023-01-04T15:45:49.530Z,6.65
2023-01-04T15:48:20.424Z,5.67
2023-01-04T15:50:51.213Z,4.55
2023-01-04T15:53:21.983Z,6.40
2023-01-04T15:55:54.160Z,7.67
2023-01-04T15:58:24.858Z,6.90
2023-01-04T16:01:02.621Z,6.80
2023-01-04T16:03:27.721Z,6.00
2023-01-04T16:05:58.405Z,4.97
2023-01-04T16:08:29.071Z,4.50
2023-01-04T16:10:59.763Z,6.28
2023-01-04T16:13:33.490Z,4.55
2023-01-04T16:16:04.661Z,5.58
2023-01-04T16:18:35.750Z,5.25
2023-01-04T16:21:14.627Z,5.03
2023-01-04T16:23:51.166Z,6.40
2023-01-04T16:26:21.637Z,5.62
2023-01-04T16:28:56.428Z,6.92
2023-01-04T16:31:27.296Z,6.60
2023-01-04T16:33:58.207Z,6.08
2023-01-04T16:36:30.361Z,6.42
2023-01-04T16:39:01.006Z,6.45
2023-01-04T16:41:31.683Z,7.58
2023-01-04T16:44:03.282Z,6.40
2023-01-04T16:46:38.840Z,5.45
2023-01-04T16:49:18.979Z,5.62
2023-01-04T16:51:51.924Z,8.83
2023-01-04T16:54:22.728Z,6.10
2023-01-04T16:56:55.292Z,10.30
2023-01-04T16:59:26.070Z,6.87
2023-01-04T17:01:58.326Z,7.90
2023-01-04T17:04:28.933Z,9.68
2023-01-04T17:06:59.667Z,6.45
2023-01-04T17:09:30.363Z,6.50
2023-01-04T17:14:34.805Z,7.78
2023-01-04T17:17:05.577Z,7.70
2023-01-04T17:19:37.867Z,6.42
2023-01-04T17:22:08.623Z,9.98
2023-01-04T17:24:40.413Z,6.10
2023-01-04T17:27:12.519Z,7.97
2023-01-04T17:29:43.335Z,11.15
2023-01-04T17:32:14.625Z,6.75
2023-01-04T17:34:45.349Z,7.30
2023-01-04T17:37:16.165Z,5.65
2023-01-04T17:39:47.197Z,7.65
2023-01-04T17:42:18.066Z,7.05
2023-01-04T17:44:52.418Z,6.37
2023-01-04T17:47:23.196Z,7.28
2023-01-04T17:49:54.042Z,5.62
2023-01-04T17:52:31.017Z,4.58
2023-01-04T17:54:57.985Z,6.17
2023-01-04T17:57:30.358Z,5.50
2023-01-04T18:00:01.166Z,6.45
2023-01-04T18:02:34.135Z,4.90
2023-01-04T18:05:06.655Z,4.67
2023-01-04T18:07:38.953Z,4.78
2023-01-04T18:10:20.571Z,5.95
2023-01-04T18:12:43.868Z,4.78
2023-01-04T18:15:14.874Z,5.65
2023-01-04T18:17:45.642Z,4.80
2023-01-04T18:20:24.653Z,3.95
2023-01-04T18:22:48.508Z,4.75
2023-01-04T18:25:20.809Z,5.80
2023-01-04T18:27:52.794Z,5.20
2023-01-04T18:30:23.692Z,6.50
2023-01-04T18:32:54.577Z,5.83
2023-01-04T18:35:25.283Z,7.62
2023-01-04T18:37:55.953Z,7.17
2023-01-04T18:40:26.726Z,9.38
2023-01-04T18:43:00.320Z,5.30
2023-01-04T18:45:31.312Z,7.12
2023-01-04T18:48:02.776Z,6.50
2023-01-04T18:50:34.840Z,6.62
2023-01-04T18:53:05.626Z,9.98
2023-01-04T18:55:36.286Z,5.00
2023-01-04T18:58:07.806Z,6.70
2023-01-04T19:00:38.681Z,4.78
2023-01-04T19:03:13.347Z,6.45
2023-01-04T19:05:44.370Z,6.30
2023-01-04T19:08:15.043Z,6.03
2023-01-04T19:10:45.869Z,4.60
2023-01-04T19:13:16.560Z,4.65
2023-01-04T19:15:47.894Z,6.40
2023-01-04T19:18:20.135Z,5.97
2023-01-04T19:20:50.841Z,4.30
2023-01-04T19:23:21.950Z,5.03
2023-01-04T19:25:52.945Z,5.50
2023-01-04T19:28:24.342Z,6.20
2023-01-04T19:30:55.172Z,4.42
2023-01-04T19:33:26.031Z,5.75
2023-01-04T19:35:57.013Z,5.90
2023-01-04T19:38:27.915Z,5.60
2023-01-04T19:41:00.669Z,4.70
2023-01-04T19:43:31.370Z,5.25
2023-01-04T19:46:02.720Z,4.40
2023-01-04T19:48:34.383Z,5.22
2023-01-04T19:51:10.617Z,6.12
2023-01-04T19:53:42.090Z,4.05
2023-01-04T19:56:14.604Z,6.60
2023-01-04T19:58:45.777Z,5.65
2023-01-04T20:01:19.433Z,6.53
2023-01-04T20:03:51.050Z,4.65
2023-01-04T20:06:22.064Z,5.47
2023-01-04T20:08:52.979Z,5.25
2023-01-04T20:11:23.754Z,5.30
2023-01-04T20:13:54.701Z,7.50
2023-01-04T20:16:25.534Z,7.00
2023-01-04T20:19:00.381Z,6.17
2023-01-04T20:21:31.737Z,5.78
2023-01-04T20:24:03.494Z,7.15
2023-01-04T20:26:34.380Z,6.28
2023-01-04T20:29:05.547Z,5.92
2023-01-04T20:31:40.876Z,5.28
2023-01-04T20:34:10.213Z,5.97
2023-01-04T20:36:41.413Z,4.50
2023-01-04T20:39:12.097Z,4.70
2023-01-04T20:41:44.251Z,5.25
2023-01-04T20:44:15.100Z,5.53
2023-01-04T20:46:48.317Z,8.00
2023-01-04T20:49:18.023Z,6.35
2023-01-04T20:51:48.937Z,6.05
2023-01-04T20:54:19.631Z,6.47
2023-01-04T20:56:50.413Z,5.62
2023-01-04T20:59:21.125Z,6.90
2023-01-04T21:01:52.135Z,5.72
2023-01-04T21:04:23.058Z,6.87
2023-01-04T21:06:53.860Z,8.08
2023-01-04T21:09:24.688Z,6.95
2023-01-04T21:11:56.029Z,11.25
2023-01-04T21:14:27.767Z,9.18
2023-01-04T21:16:58.558Z,8.53
2023-01-04T21:19:29.276Z,10.32
2023-01-04T21:22:00.051Z,6.83
2023-01-04T21:24:31.147Z,7.67
2023-01-04T21:27:02.168Z,7.33
2023-01-04T21:29:33.167Z,7.33
2023-01-04T21:32:03.824Z,7.67
2023-01-04T21:34:34.898Z,7.30
2023-01-04T21:37:05.690Z,7.10
2023-01-04T21:39:37.862Z,7.42
2023-01-04T21:42:08.678Z,5.58
2023-01-04T21:44:39.387Z,6.60
2023-01-04T21:47:10.161Z,6.10
2023-01-04T21:49:42.589Z,6.22
2023-01-04T21:52:14.031Z,13.22
2023-01-04T21:54:44.740Z,12.13
2023-01-04T21:57:15.395Z,10.78
2023-01-04T21:59:46.180Z,8.03
2023-01-04T22:02:21.459Z,6.33
2023-01-04T22:04:52.160Z,8.83
2023-01-04T22:07:22.842Z,6.37
2023-01-04T22:09:57.378Z,7.90
2023-01-04T22:12:26.039Z,6.20
2023-01-04T22:14:56.716Z,6.30
2023-01-04T22:17:27.430Z,10.35
2023-01-04T22:19:58.101Z,7.15
2023-01-04T22:22:30.103Z,6.17
2023-01-04T22:25:00.937Z,8.55
2023-01-04T22:27:31.783Z,9.23
2023-01-04T22:30:02.498Z,9.65
2023-01-04T22:32:33.278Z,5.80
2023-01-04T22:35:04.192Z,6.42
2023-01-04T22:37:35.002Z,7.45
2023-01-04T22:40:05.885Z,7.25
2023-01-04T22:42:36.592Z,10.53
2023-01-04T22:45:13.020Z,9.45
2023-01-04T22:47:40.213Z,7.65
2023-01-04T22:50:11.582Z,7.20
2023-01-04T22:52:45.937Z,8.75
2023-01-04T22:55:14.369Z,6.55
2023-01-04T22:57:46.761Z,6.33
2023-01-04T23:00:18.717Z,9.60
2023-01-04T23:02:49.616Z,8.48
2023-01-04T23:05:20.605Z,8.83
2023-01-04T23:07:51.272Z,8.43
2023-01-04T23:10:22.119Z,8.80
2023-01-04T23:12:52.989Z,11.05
2023-01-04T23:15:23.836Z,11.53
2023-01-04T23:17:54.560Z,9.30
2023-01-04T23:20:25.467Z,11.40
2023-01-04T23:22:56.203Z,13.60
2023-01-04T23:25:27.393Z,10.40
2023-01-04T23:27:58.081Z,20.23
2023-01-04T23:30:28.789Z,12.10
2023-01-04T23:33:07.355Z,11.88
2023-01-04T23:35:41.565Z,10.05
2023-01-04T23:38:12.486Z,13.00
2023-01-04T23:40:44.636Z,12.68
2023-01-04T23:43:15.319Z,13.72
2023-01-04T23:45:46.329Z,12.95
2023-01-04T23:48:17.503Z,12.07
2023-01-04T23:50:49.480Z,14.25
2023-01-04T23:53:20.192Z,15.83
2023-01-04T23:56:02.303Z,14.47
2023-01-04T23:58:33.189Z,17.73
